sensor_id;sensor_type;location;lat;lon;timestamp;P1;durP1;ratioP1;P2;durP2;ratioP2
57313;SDS011;53202;50.976;18.216;2023-12-20T00:00:05;16.60;;;9.40;;
57313;SDS011;53202;50.976;18.216;2023-12-20T00:01:07;14.90;;;8.90;;
57313;SDS011;53202;50.976;18.216;2023-12-20T00:02:08;18.00;;;9.00;;
57313;SDS011;53202;50.976;18.216;2023-12-20T00:03:09;32.70;;;9.90;;
57313;SDS011;53202;50.976;18.216;2023-12-20T00:04:10;14.30;;;9.10;;
57313;SDS011;53202;50.976;18.216;2023-12-20T00:05:11;17.20;;;8.00;;
57313;SDS011;53202;50.976;18.216;2023-12-20T00:06:12;14.80;;;8.60;;
57313;SDS011;53202;50.976;18.216;2023-12-20T00:07:13;10.50;;;7.50;;
57313;SDS011;53202;50.976;18.216;2023-12-20T00:08:14;13.00;;;7.60;;
57313;SDS011;53202;50.976;18.216;2023-12-20T00:09:15;12.00;;;7.10;;
57313;SDS011;53202;50.976;18.216;2023-12-20T00:10:16;15.00;;;8.20;;
57313;SDS011;53202;50.976;18.216;2023-12-20T00:11:17;13.90;;;7.30;;
57313;SDS011;53202;50.976;18.216;2023-12-20T00:12:18;17.00;;;8.50;;
57313;SDS011;53202;50.976;18.216;2023-12-20T00:13:18;11.10;;;7.30;;
57313;SDS011;53202;50.976;18.216;2023-12-20T00:14:19;16.90;;;7.90;;
57313;SDS011;53202;50.976;18.216;2023-12-20T00:15:20;15.70;;;8.30;;
57313;SDS011;53202;50.976;18.216;2023-12-20T00:16:21;21.70;;;7.70;;
57313;SDS011;53202;50.976;18.216;2023-12-20T00:17:22;20.60;;;9.00;;
57313;SDS011;53202;50.976;18.216;2023-12-20T00:18:24;10.20;;;7.80;;
57313;SDS011;53202;50.976;18.216;2023-12-20T00:19:25;15.00;;;7.70;;
57313;SDS011;53202;50.976;18.216;2023-12-20T00:20:26;16.50;;;9.20;;
57313;SDS011;53202;50.976;18.216;2023-12-20T00:21:27;15.20;;;8.80;;
57313;SDS011;53202;50.976;18.216;2023-12-20T00:22:28;17.30;;;8.90;;
57313;SDS011;53202;50.976;18.216;2023-12-20T00:23:29;20.90;;;9.50;;
57313;SDS011;53202;50.976;18.216;2023-12-20T00:24:30;16.80;;;8.30;;
57313;SDS011;53202;50.976;18.216;2023-12-20T00:25:31;13.70;;;8.50;;
57313;SDS011;53202;50.976;18.216;2023-12-20T00:26:32;14.00;;;7.90;;
57313;SDS011;53202;50.976;18.216;2023-12-20T00:27:33;15.80;;;7.80;;
57313;SDS011;53202;50.976;18.216;2023-12-20T00:28:33;16.00;;;9.20;;
57313;SDS011;53202;50.976;18.216;2023-12-20T00:29:35;17.20;;;9.10;;
57313;SDS011;53202;50.976;18.216;2023-12-20T00:30:36;14.50;;;8.50;;
57313;SDS011;53202;50.976;18.216;2023-12-20T00:31:36;14.10;;;7.40;;
57313;SDS011;53202;50.976;18.216;2023-12-20T00:32:38;18.50;;;8.10;;
57313;SDS011;53202;50.976;18.216;2023-12-20T00:33:39;22.40;;;8.60;;
57313;SDS011;53202;50.976;18.216;2023-12-20T00:34:43;12.30;;;8.90;;
57313;SDS011;53202;50.976;18.216;2023-12-20T00:35:45;11.70;;;7.90;;
57313;SDS011;53202;50.976;18.216;2023-12-20T00:36:45;15.40;;;8.60;;
57313;SDS011;53202;50.976;18.216;2023-12-20T00:37:46;15.30;;;8.40;;
57313;SDS011;53202;50.976;18.216;2023-12-20T00:38:47;14.20;;;9.50;;
57313;SDS011;53202;50.976;18.216;2023-12-20T00:39:48;12.10;;;8.60;;
57313;SDS011;53202;50.976;18.216;2023-12-20T00:40:49;13.60;;;8.60;;
57313;SDS011;53202;50.976;18.216;2023-12-20T00:41:50;17.50;;;8.80;;
57313;SDS011;53202;50.976;18.216;2023-12-20T00:42:51;15.60;;;8.70;;
57313;SDS011;53202;50.976;18.216;2023-12-20T00:43:52;20.00;;;9.10;;
57313;SDS011;53202;50.976;18.216;2023-12-20T00:44:53;13.80;;;8.60;;
57313;SDS011;53202;50.976;18.216;2023-12-20T00:45:54;13.70;;;8.70;;
57313;SDS011;53202;50.976;18.216;2023-12-20T00:46:55;15.50;;;8.00;;
57313;SDS011;53202;50.976;18.216;2023-12-20T00:47:56;14.90;;;9.20;;
57313;SDS011;53202;50.976;18.216;2023-12-20T00:48:57;16.90;;;8.20;;
57313;SDS011;53202;50.976;18.216;2023-12-20T00:49:58;16.60;;;9.10;;
57313;SDS011;53202;50.976;18.216;2023-12-20T00:50:59;16.00;;;9.50;;
57313;SDS011;53202;50.976;18.216;2023-12-20T00:52:00;14.60;;;8.00;;
57313;SDS011;53202;50.976;18.216;2023-12-20T00:53:01;17.80;;;8.80;;
57313;SDS011;53202;50.976;18.216;2023-12-20T00:54:02;13.40;;;8.20;;
57313;SDS011;53202;50.976;18.216;2023-12-20T00:55:03;18.60;;;7.90;;
57313;SDS011;53202;50.976;18.216;2023-12-20T00:56:05;13.10;;;7.50;;
57313;SDS011;53202;50.976;18.216;2023-12-20T00:57:06;18.30;;;8.30;;
57313;SDS011;53202;50.976;18.216;2023-12-20T00:58:07;12.80;;;7.90;;
57313;SDS011;53202;50.976;18.216;2023-12-20T00:59:08;15.00;;;7.30;;
57313;SDS011;53202;50.976;18.216;2023-12-20T01:00:09;11.60;;;7.40;;
57313;SDS011;53202;50.976;18.216;2023-12-20T01:01:10;14.60;;;8.20;;
57313;SDS011;53202;50.976;18.216;2023-12-20T01:02:11;13.00;;;8.10;;
57313;SDS011;53202;50.976;18.216;2023-12-20T01:03:12;12.90;;;8.20;;
57313;SDS011;53202;50.976;18.216;2023-12-20T01:04:14;14.70;;;7.80;;
57313;SDS011;53202;50.976;18.216;2023-12-20T01:05:15;12.10;;;8.10;;
57313;SDS011;53202;50.976;18.216;2023-12-20T01:06:16;13.70;;;8.30;;
57313;SDS011;53202;50.976;18.216;2023-12-20T01:07:17;14.50;;;8.00;;
57313;SDS011;53202;50.976;18.216;2023-12-20T01:08:18;11.60;;;7.50;;
57313;SDS011;53202;50.976;18.216;2023-12-20T01:09:19;18.90;;;8.40;;
57313;SDS011;53202;50.976;18.216;2023-12-20T01:10:20;12.00;;;8.20;;
57313;SDS011;53202;50.976;18.216;2023-12-20T01:11:22;15.40;;;9.40;;
57313;SDS011;53202;50.976;18.216;2023-12-20T01:12:23;14.10;;;8.40;;
57313;SDS011;53202;50.976;18.216;2023-12-20T01:13:24;10.10;;;7.60;;
57313;SDS011;53202;50.976;18.216;2023-12-20T01:14:25;18.50;;;8.10;;
57313;SDS011;53202;50.976;18.216;2023-12-20T01:15:26;20.00;;;9.30;;
57313;SDS011;53202;50.976;18.216;2023-12-20T01:16:27;13.40;;;8.30;;
57313;SDS011;53202;50.976;18.216;2023-12-20T01:17:28;12.60;;;7.40;;
57313;SDS011;53202;50.976;18.216;2023-12-20T01:18:28;14.60;;;8.10;;
57313;SDS011;53202;50.976;18.216;2023-12-20T01:19:30;13.40;;;8.20;;
57313;SDS011;53202;50.976;18.216;2023-12-20T01:20:31;11.60;;;7.70;;
57313;SDS011;53202;50.976;18.216;2023-12-20T01:21:32;14.10;;;7.90;;
57313;SDS011;53202;50.976;18.216;2023-12-20T01:22:33;12.80;;;6.50;;
57313;SDS011;53202;50.976;18.216;2023-12-20T01:23:36;18.20;;;8.60;;
57313;SDS011;53202;50.976;18.216;2023-12-20T01:24:37;11.70;;;7.30;;
57313;SDS011;53202;50.976;18.216;2023-12-20T01:25:39;12.70;;;8.30;;
57313;SDS011;53202;50.976;18.216;2023-12-20T01:26:40;18.00;;;8.30;;
57313;SDS011;53202;50.976;18.216;2023-12-20T01:27:40;15.80;;;8.70;;
57313;SDS011;53202;50.976;18.216;2023-12-20T01:28:41;13.80;;;9.20;;
57313;SDS011;53202;50.976;18.216;2023-12-20T01:29:42;12.70;;;8.30;;
57313;SDS011;53202;50.976;18.216;2023-12-20T01:30:43;12.50;;;8.40;;
57313;SDS011;53202;50.976;18.216;2023-12-20T01:31:44;13.50;;;8.20;;
57313;SDS011;53202;50.976;18.216;2023-12-20T01:32:45;14.40;;;8.00;;
57313;SDS011;53202;50.976;18.216;2023-12-20T01:33:46;15.50;;;8.60;;
57313;SDS011;53202;50.976;18.216;2023-12-20T01:34:47;14.60;;;8.80;;
57313;SDS011;53202;50.976;18.216;2023-12-20T01:35:49;11.70;;;8.20;;
57313;SDS011;53202;50.976;18.216;2023-12-20T01:36:49;10.30;;;7.70;;
57313;SDS011;53202;50.976;18.216;2023-12-20T01:37:50;14.60;;;8.30;;
57313;SDS011;53202;50.976;18.216;2023-12-20T01:38:51;11.40;;;7.60;;
57313;SDS011;53202;50.976;18.216;2023-12-20T01:39:52;14.60;;;7.70;;
57313;SDS011;53202;50.976;18.216;2023-12-20T01:40:53;12.10;;;7.50;;
57313;SDS011;53202;50.976;18.216;2023-12-20T01:41:54;13.60;;;8.10;;
57313;SDS011;53202;50.976;18.216;2023-12-20T01:42:59;11.10;;;7.90;;
57313;SDS011;53202;50.976;18.216;2023-12-20T01:44:00;12.40;;;7.80;;
57313;SDS011;53202;50.976;18.216;2023-12-20T01:45:01;14.50;;;7.50;;
57313;SDS011;53202;50.976;18.216;2023-12-20T01:46:03;12.70;;;8.30;;
57313;SDS011;53202;50.976;18.216;2023-12-20T01:47:04;10.00;;;6.90;;
57313;SDS011;53202;50.976;18.216;2023-12-20T01:48:05;12.60;;;8.00;;
57313;SDS011;53202;50.976;18.216;2023-12-20T01:49:06;20.00;;;7.70;;
57313;SDS011;53202;50.976;18.216;2023-12-20T01:50:08;9.10;;;6.70;;
57313;SDS011;53202;50.976;18.216;2023-12-20T01:51:11;19.20;;;8.60;;
57313;SDS011;53202;50.976;18.216;2023-12-20T01:52:12;11.50;;;7.90;;
57313;SDS011;53202;50.976;18.216;2023-12-20T01:53:13;12.20;;;7.20;;
57313;SDS011;53202;50.976;18.216;2023-12-20T01:54:14;13.90;;;8.20;;
57313;SDS011;53202;50.976;18.216;2023-12-20T01:55:15;14.40;;;8.80;;
57313;SDS011;53202;50.976;18.216;2023-12-20T01:56:16;10.70;;;7.00;;
57313;SDS011;53202;50.976;18.216;2023-12-20T01:57:17;15.70;;;7.10;;
57313;SDS011;53202;50.976;18.216;2023-12-20T01:58:19;11.50;;;7.20;;
57313;SDS011;53202;50.976;18.216;2023-12-20T01:59:20;14.30;;;7.70;;
57313;SDS011;53202;50.976;18.216;2023-12-20T02:00:22;11.70;;;6.90;;
57313;SDS011;53202;50.976;18.216;2023-12-20T02:01:24;11.90;;;7.10;;
57313;SDS011;53202;50.976;18.216;2023-12-20T02:02:26;9.90;;;6.60;;
57313;SDS011;53202;50.976;18.216;2023-12-20T02:03:28;10.10;;;6.30;;
57313;SDS011;53202;50.976;18.216;2023-12-20T02:04:29;14.10;;;7.00;;
57313;SDS011;53202;50.976;18.216;2023-12-20T02:05:30;15.00;;;7.70;;
57313;SDS011;53202;50.976;18.216;2023-12-20T02:06:32;11.50;;;7.60;;
57313;SDS011;53202;50.976;18.216;2023-12-20T02:07:34;8.60;;;7.00;;
57313;SDS011;53202;50.976;18.216;2023-12-20T02:08:36;12.60;;;7.40;;
57313;SDS011;53202;50.976;18.216;2023-12-20T02:09:38;15.20;;;8.40;;
57313;SDS011;53202;50.976;18.216;2023-12-20T02:10:39;12.50;;;7.40;;
57313;SDS011;53202;50.976;18.216;2023-12-20T02:11:41;13.00;;;7.70;;
57313;SDS011;53202;50.976;18.216;2023-12-20T02:12:42;12.70;;;7.50;;
57313;SDS011;53202;50.976;18.216;2023-12-20T02:13:43;12.50;;;8.10;;
57313;SDS011;53202;50.976;18.216;2023-12-20T02:14:44;16.00;;;9.30;;
57313;SDS011;53202;50.976;18.216;2023-12-20T02:15:45;16.00;;;10.00;;
57313;SDS011;53202;50.976;18.216;2023-12-20T02:16:46;11.10;;;7.40;;
57313;SDS011;53202;50.976;18.216;2023-12-20T02:17:47;11.70;;;8.50;;
57313;SDS011;53202;50.976;18.216;2023-12-20T02:18:48;13.30;;;7.70;;
57313;SDS011;53202;50.976;18.216;2023-12-20T02:19:49;10.80;;;7.10;;
57313;SDS011;53202;50.976;18.216;2023-12-20T02:20:50;11.50;;;6.90;;
57313;SDS011;53202;50.976;18.216;2023-12-20T02:22:04;12.80;;;9.10;;
57313;SDS011;53202;50.976;18.216;2023-12-20T02:23:07;17.90;;;8.40;;
57313;SDS011;53202;50.976;18.216;2023-12-20T02:24:08;12.30;;;8.50;;
57313;SDS011;53202;50.976;18.216;2023-12-20T02:25:08;11.50;;;7.90;;
57313;SDS011;53202;50.976;18.216;2023-12-20T02:26:09;16.40;;;7.10;;
57313;SDS011;53202;50.976;18.216;2023-12-20T02:27:11;13.50;;;7.70;;
57313;SDS011;53202;50.976;18.216;2023-12-20T02:28:12;16.00;;;8.00;;
57313;SDS011;53202;50.976;18.216;2023-12-20T02:29:13;12.80;;;8.20;;
57313;SDS011;53202;50.976;18.216;2023-12-20T02:30:14;12.90;;;9.10;;
57313;SDS011;53202;50.976;18.216;2023-12-20T02:31:15;11.60;;;7.40;;
57313;SDS011;53202;50.976;18.216;2023-12-20T02:32:17;13.80;;;8.40;;
57313;SDS011;53202;50.976;18.216;2023-12-20T02:33:18;15.40;;;8.60;;
57313;SDS011;53202;50.976;18.216;2023-12-20T02:34:19;17.30;;;9.50;;
57313;SDS011;53202;50.976;18.216;2023-12-20T02:35:20;19.40;;;9.00;;
57313;SDS011;53202;50.976;18.216;2023-12-20T02:36:21;17.00;;;9.00;;
57313;SDS011;53202;50.976;18.216;2023-12-20T02:37:22;13.60;;;9.30;;
57313;SDS011;53202;50.976;18.216;2023-12-20T02:38:23;13.20;;;9.40;;
57313;SDS011;53202;50.976;18.216;2023-12-20T02:39:23;13.20;;;8.90;;
57313;SDS011;53202;50.976;18.216;2023-12-20T02:40:24;14.10;;;9.20;;
57313;SDS011;53202;50.976;18.216;2023-12-20T02:41:25;15.40;;;9.20;;
57313;SDS011;53202;50.976;18.216;2023-12-20T02:42:26;13.70;;;9.00;;
57313;SDS011;53202;50.976;18.216;2023-12-20T02:43:27;14.50;;;8.80;;
57313;SDS011;53202;50.976;18.216;2023-12-20T02:44:28;15.60;;;10.30;;
57313;SDS011;53202;50.976;18.216;2023-12-20T02:45:29;16.40;;;10.50;;
57313;SDS011;53202;50.976;18.216;2023-12-20T02:46:30;15.20;;;10.40;;
57313;SDS011;53202;50.976;18.216;2023-12-20T02:47:31;18.60;;;9.50;;
57313;SDS011;53202;50.976;18.216;2023-12-20T02:48:32;18.80;;;10.30;;
57313;SDS011;53202;50.976;18.216;2023-12-20T02:49:33;16.30;;;10.00;;
57313;SDS011;53202;50.976;18.216;2023-12-20T02:50:34;15.00;;;8.90;;
57313;SDS011;53202;50.976;18.216;2023-12-20T02:51:35;15.10;;;9.20;;
57313;SDS011;53202;50.976;18.216;2023-12-20T02:52:38;15.40;;;9.90;;
57313;SDS011;53202;50.976;18.216;2023-12-20T02:53:39;13.10;;;8.90;;
57313;SDS011;53202;50.976;18.216;2023-12-20T02:54:40;14.00;;;9.60;;
57313;SDS011;53202;50.976;18.216;2023-12-20T02:55:41;13.80;;;10.60;;
57313;SDS011;53202;50.976;18.216;2023-12-20T02:56:42;15.00;;;9.50;;
57313;SDS011;53202;50.976;18.216;2023-12-20T02:57:43;16.40;;;10.70;;
57313;SDS011;53202;50.976;18.216;2023-12-20T02:58:43;14.30;;;10.50;;
57313;SDS011;53202;50.976;18.216;2023-12-20T02:59:44;15.10;;;9.70;;
57313;SDS011;53202;50.976;18.216;2023-12-20T03:00:45;12.80;;;10.00;;
57313;SDS011;53202;50.976;18.216;2023-12-20T03:01:46;17.20;;;11.00;;
57313;SDS011;53202;50.976;18.216;2023-12-20T03:02:47;15.60;;;10.00;;
57313;SDS011;53202;50.976;18.216;2023-12-20T03:03:48;13.40;;;9.40;;
57313;SDS011;53202;50.976;18.216;2023-12-20T03:04:49;16.50;;;10.00;;
57313;SDS011;53202;50.976;18.216;2023-12-20T03:05:50;22.10;;;10.10;;
57313;SDS011;53202;50.976;18.216;2023-12-20T03:06:51;17.30;;;11.90;;
57313;SDS011;53202;50.976;18.216;2023-12-20T03:07:52;17.70;;;11.50;;
57313;SDS011;53202;50.976;18.216;2023-12-20T03:08:53;18.60;;;11.50;;
57313;SDS011;53202;50.976;18.216;2023-12-20T03:09:54;18.00;;;11.70;;
57313;SDS011;53202;50.976;18.216;2023-12-20T03:10:55;19.00;;;11.50;;
57313;SDS011;53202;50.976;18.216;2023-12-20T03:11:56;17.50;;;11.90;;
57313;SDS011;53202;50.976;18.216;2023-12-20T03:12:56;20.30;;;11.20;;
57313;SDS011;53202;50.976;18.216;2023-12-20T03:13:57;19.40;;;11.90;;
57313;SDS011;53202;50.976;18.216;2023-12-20T03:14:58;20.60;;;11.80;;
57313;SDS011;53202;50.976;18.216;2023-12-20T03:15:59;20.30;;;12.20;;
57313;SDS011;53202;50.976;18.216;2023-12-20T03:17:00;24.20;;;12.10;;
57313;SDS011;53202;50.976;18.216;2023-12-20T03:18:01;19.30;;;11.40;;
57313;SDS011;53202;50.976;18.216;2023-12-20T03:19:02;21.40;;;11.30;;
57313;SDS011;53202;50.976;18.216;2023-12-20T03:20:03;22.90;;;12.10;;
57313;SDS011;53202;50.976;18.216;2023-12-20T03:21:05;19.00;;;11.80;;
57313;SDS011;53202;50.976;18.216;2023-12-20T03:22:06;21.20;;;12.40;;
57313;SDS011;53202;50.976;18.216;2023-12-20T03:23:07;21.60;;;11.60;;
57313;SDS011;53202;50.976;18.216;2023-12-20T03:24:08;16.10;;;11.40;;
57313;SDS011;53202;50.976;18.216;2023-12-20T03:25:09;23.10;;;12.80;;
57313;SDS011;53202;50.976;18.216;2023-12-20T03:26:10;18.30;;;12.10;;
57313;SDS011;53202;50.976;18.216;2023-12-20T03:27:10;16.40;;;11.40;;
57313;SDS011;53202;50.976;18.216;2023-12-20T03:28:14;20.30;;;11.30;;
57313;SDS011;53202;50.976;18.216;2023-12-20T03:29:15;14.60;;;10.40;;
57313;SDS011;53202;50.976;18.216;2023-12-20T03:30:16;18.20;;;10.70;;
57313;SDS011;53202;50.976;18.216;2023-12-20T03:31:17;20.10;;;10.10;;
57313;SDS011;53202;50.976;18.216;2023-12-20T03:32:18;20.60;;;12.30;;
57313;SDS011;53202;50.976;18.216;2023-12-20T03:33:19;14.80;;;10.80;;
57313;SDS011;53202;50.976;18.216;2023-12-20T03:34:20;18.60;;;12.40;;
57313;SDS011;53202;50.976;18.216;2023-12-20T03:35:21;17.80;;;11.60;;
57313;SDS011;53202;50.976;18.216;2023-12-20T03:36:22;22.40;;;12.10;;
57313;SDS011;53202;50.976;18.216;2023-12-20T03:37:23;18.60;;;11.40;;
57313;SDS011;53202;50.976;18.216;2023-12-20T03:38:24;17.60;;;11.50;;
57313;SDS011;53202;50.976;18.216;2023-12-20T03:39:25;23.40;;;11.60;;
57313;SDS011;53202;50.976;18.216;2023-12-20T03:40:26;21.90;;;13.00;;
57313;SDS011;53202;50.976;18.216;2023-12-20T03:41:27;18.70;;;12.10;;
57313;SDS011;53202;50.976;18.216;2023-12-20T03:42:28;17.10;;;10.80;;
57313;SDS011;53202;50.976;18.216;2023-12-20T03:43:29;23.60;;;12.00;;
57313;SDS011;53202;50.976;18.216;2023-12-20T03:44:30;18.70;;;12.10;;
57313;SDS011;53202;50.976;18.216;2023-12-20T03:45:30;20.80;;;11.80;;
57313;SDS011;53202;50.976;18.216;2023-12-20T03:46:31;22.20;;;13.80;;
57313;SDS011;53202;50.976;18.216;2023-12-20T03:47:32;25.20;;;12.60;;
57313;SDS011;53202;50.976;18.216;2023-12-20T03:48:33;25.50;;;12.70;;
57313;SDS011;53202;50.976;18.216;2023-12-20T03:49:34;15.40;;;10.60;;
57313;SDS011;53202;50.976;18.216;2023-12-20T03:50:37;18.00;;;12.20;;
57313;SDS011;53202;50.976;18.216;2023-12-20T03:51:38;18.40;;;11.40;;
57313;SDS011;53202;50.976;18.216;2023-12-20T03:52:39;19.10;;;12.90;;
57313;SDS011;53202;50.976;18.216;2023-12-20T03:53:39;18.20;;;11.70;;
57313;SDS011;53202;50.976;18.216;2023-12-20T03:54:41;20.40;;;13.00;;
57313;SDS011;53202;50.976;18.216;2023-12-20T03:55:42;18.60;;;11.90;;
57313;SDS011;53202;50.976;18.216;2023-12-20T03:56:44;20.10;;;12.40;;
57313;SDS011;53202;50.976;18.216;2023-12-20T03:57:45;20.10;;;13.20;;
57313;SDS011;53202;50.976;18.216;2023-12-20T03:58:46;19.10;;;12.00;;
57313;SDS011;53202;50.976;18.216;2023-12-20T03:59:47;18.90;;;12.90;;
57313;SDS011;53202;50.976;18.216;2023-12-20T04:00:48;17.10;;;11.50;;
57313;SDS011;53202;50.976;18.216;2023-12-20T04:01:48;23.30;;;13.40;;
57313;SDS011;53202;50.976;18.216;2023-12-20T04:02:49;16.00;;;11.80;;
57313;SDS011;53202;50.976;18.216;2023-12-20T04:03:50;21.30;;;13.30;;
57313;SDS011;53202;50.976;18.216;2023-12-20T04:04:52;21.10;;;13.50;;
57313;SDS011;53202;50.976;18.216;2023-12-20T04:05:53;24.10;;;13.80;;
57313;SDS011;53202;50.976;18.216;2023-12-20T04:06:54;31.50;;;13.00;;
57313;SDS011;53202;50.976;18.216;2023-12-20T04:07:55;20.20;;;13.70;;
57313;SDS011;53202;50.976;18.216;2023-12-20T04:08:56;23.20;;;13.40;;
57313;SDS011;53202;50.976;18.216;2023-12-20T04:09:57;20.80;;;13.40;;
57313;SDS011;53202;50.976;18.216;2023-12-20T04:10:58;21.20;;;13.90;;
57313;SDS011;53202;50.976;18.216;2023-12-20T04:11:59;20.00;;;13.60;;
57313;SDS011;53202;50.976;18.216;2023-12-20T04:12:59;18.20;;;12.40;;
57313;SDS011;53202;50.976;18.216;2023-12-20T04:14:00;24.10;;;13.20;;
57313;SDS011;53202;50.976;18.216;2023-12-20T04:15:01;21.40;;;13.50;;
57313;SDS011;53202;50.976;18.216;2023-12-20T04:16:09;23.60;;;15.00;;
57313;SDS011;53202;50.976;18.216;2023-12-20T04:17:10;20.10;;;13.60;;
57313;SDS011;53202;50.976;18.216;2023-12-20T04:18:11;20.00;;;12.80;;
57313;SDS011;53202;50.976;18.216;2023-12-20T04:19:12;19.70;;;13.00;;
57313;SDS011;53202;50.976;18.216;2023-12-20T04:20:12;20.70;;;13.00;;
57313;SDS011;53202;50.976;18.216;2023-12-20T04:21:13;18.90;;;12.20;;
57313;SDS011;53202;50.976;18.216;2023-12-20T04:22:14;19.70;;;12.10;;
57313;SDS011;53202;50.976;18.216;2023-12-20T04:23:16;17.00;;;12.70;;
57313;SDS011;53202;50.976;18.216;2023-12-20T04:24:17;17.80;;;12.70;;
57313;SDS011;53202;50.976;18.216;2023-12-20T04:25:18;22.50;;;13.20;;
57313;SDS011;53202;50.976;18.216;2023-12-20T04:26:18;18.10;;;13.30;;
57313;SDS011;53202;50.976;18.216;2023-12-20T04:27:19;20.00;;;13.10;;
57313;SDS011;53202;50.976;18.216;2023-12-20T04:28:20;15.50;;;11.90;;
57313;SDS011;53202;50.976;18.216;2023-12-20T04:29:21;25.90;;;13.60;;
57313;SDS011;53202;50.976;18.216;2023-12-20T04:30:22;17.80;;;12.40;;
57313;SDS011;53202;50.976;18.216;2023-12-20T04:31:23;19.40;;;12.90;;
57313;SDS011;53202;50.976;18.216;2023-12-20T04:32:24;22.90;;;14.10;;
57313;SDS011;53202;50.976;18.216;2023-12-20T04:33:25;20.80;;;13.10;;
57313;SDS011;53202;50.976;18.216;2023-12-20T04:34:26;23.80;;;13.70;;
57313;SDS011;53202;50.976;18.216;2023-12-20T04:35:27;23.00;;;14.00;;
57313;SDS011;53202;50.976;18.216;2023-12-20T04:36:28;22.70;;;12.70;;
57313;SDS011;53202;50.976;18.216;2023-12-20T04:37:30;20.00;;;12.90;;
57313;SDS011;53202;50.976;18.216;2023-12-20T04:38:31;25.10;;;13.10;;
57313;SDS011;53202;50.976;18.216;2023-12-20T04:39:32;20.20;;;12.90;;
57313;SDS011;53202;50.976;18.216;2023-12-20T04:40:33;23.60;;;13.20;;
57313;SDS011;53202;50.976;18.216;2023-12-20T04:41:34;21.30;;;12.40;;
57313;SDS011;53202;50.976;18.216;2023-12-20T04:42:35;14.50;;;10.90;;
57313;SDS011;53202;50.976;18.216;2023-12-20T04:43:37;14.70;;;11.40;;
57313;SDS011;53202;50.976;18.216;2023-12-20T04:44:37;18.00;;;11.70;;
57313;SDS011;53202;50.976;18.216;2023-12-20T04:45:38;18.70;;;12.40;;
57313;SDS011;53202;50.976;18.216;2023-12-20T04:46:39;17.50;;;11.80;;
57313;SDS011;53202;50.976;18.216;2023-12-20T04:47:41;18.60;;;11.80;;
57313;SDS011;53202;50.976;18.216;2023-12-20T04:48:42;17.50;;;11.70;;
57313;SDS011;53202;50.976;18.216;2023-12-20T04:49:43;14.90;;;11.50;;
57313;SDS011;53202;50.976;18.216;2023-12-20T04:50:44;18.10;;;12.20;;
57313;SDS011;53202;50.976;18.216;2023-12-20T04:51:45;33.10;;;11.60;;
57313;SDS011;53202;50.976;18.216;2023-12-20T04:52:46;19.30;;;12.00;;
57313;SDS011;53202;50.976;18.216;2023-12-20T04:53:47;19.30;;;11.90;;
57313;SDS011;53202;50.976;18.216;2023-12-20T04:54:48;21.00;;;12.30;;
57313;SDS011;53202;50.976;18.216;2023-12-20T04:55:49;17.80;;;11.70;;
57313;SDS011;53202;50.976;18.216;2023-12-20T04:56:50;16.10;;;10.60;;
57313;SDS011;53202;50.976;18.216;2023-12-20T04:57:51;21.60;;;13.20;;
57313;SDS011;53202;50.976;18.216;2023-12-20T04:58:51;18.00;;;12.50;;
57313;SDS011;53202;50.976;18.216;2023-12-20T04:59:52;22.80;;;13.00;;
57313;SDS011;53202;50.976;18.216;2023-12-20T05:00:53;22.60;;;13.40;;
57313;SDS011;53202;50.976;18.216;2023-12-20T05:01:54;16.70;;;11.20;;
57313;SDS011;53202;50.976;18.216;2023-12-20T05:02:55;18.80;;;12.40;;
57313;SDS011;53202;50.976;18.216;2023-12-20T05:03:56;22.00;;;12.90;;
57313;SDS011;53202;50.976;18.216;2023-12-20T05:04:57;18.90;;;12.50;;
57313;SDS011;53202;50.976;18.216;2023-12-20T05:05:58;20.70;;;12.80;;
57313;SDS011;53202;50.976;18.216;2023-12-20T05:06:59;17.30;;;11.60;;
57313;SDS011;53202;50.976;18.216;2023-12-20T05:08:00;19.70;;;12.90;;
57313;SDS011;53202;50.976;18.216;2023-12-20T05:09:01;21.50;;;12.50;;
57313;SDS011;53202;50.976;18.216;2023-12-20T05:10:03;18.70;;;11.40;;
57313;SDS011;53202;50.976;18.216;2023-12-20T05:11:04;19.70;;;11.70;;
57313;SDS011;53202;50.976;18.216;2023-12-20T05:12:05;23.70;;;13.40;;
57313;SDS011;53202;50.976;18.216;2023-12-20T05:13:07;21.00;;;12.80;;
57313;SDS011;53202;50.976;18.216;2023-12-20T05:14:08;17.00;;;12.00;;
57313;SDS011;53202;50.976;18.216;2023-12-20T05:15:09;16.50;;;11.70;;
57313;SDS011;53202;50.976;18.216;2023-12-20T05:16:10;16.30;;;11.60;;
57313;SDS011;53202;50.976;18.216;2023-12-20T05:17:10;18.80;;;13.10;;
57313;SDS011;53202;50.976;18.216;2023-12-20T05:18:11;22.50;;;12.80;;
57313;SDS011;53202;50.976;18.216;2023-12-20T05:19:13;14.30;;;10.80;;
57313;SDS011;53202;50.976;18.216;2023-12-20T05:20:14;18.90;;;12.00;;
57313;SDS011;53202;50.976;18.216;2023-12-20T05:21:15;23.60;;;12.20;;
57313;SDS011;53202;50.976;18.216;2023-12-20T05:22:16;20.10;;;12.00;;
57313;SDS011;53202;50.976;18.216;2023-12-20T05:23:17;16.00;;;10.50;;
57313;SDS011;53202;50.976;18.216;2023-12-20T05:24:18;13.10;;;10.20;;
57313;SDS011;53202;50.976;18.216;2023-12-20T05:25:19;13.40;;;9.60;;
57313;SDS011;53202;50.976;18.216;2023-12-20T05:26:20;12.90;;;9.60;;
57313;SDS011;53202;50.976;18.216;2023-12-20T05:27:21;12.00;;;8.80;;
57313;SDS011;53202;50.976;18.216;2023-12-20T05:28:22;16.60;;;10.80;;
57313;SDS011;53202;50.976;18.216;2023-12-20T05:29:23;18.30;;;9.90;;
57313;SDS011;53202;50.976;18.216;2023-12-20T05:30:24;14.20;;;9.60;;
57313;SDS011;53202;50.976;18.216;2023-12-20T05:31:25;15.20;;;9.40;;
57313;SDS011;53202;50.976;18.216;2023-12-20T05:32:26;12.80;;;9.10;;
57313;SDS011;53202;50.976;18.216;2023-12-20T05:33:27;14.40;;;10.00;;
57313;SDS011;53202;50.976;18.216;2023-12-20T05:34:28;13.10;;;9.30;;
57313;SDS011;53202;50.976;18.216;2023-12-20T05:35:28;12.80;;;9.20;;
57313;SDS011;53202;50.976;18.216;2023-12-20T05:36:29;22.00;;;10.10;;
57313;SDS011;53202;50.976;18.216;2023-12-20T05:37:30;18.40;;;11.30;;
57313;SDS011;53202;50.976;18.216;2023-12-20T05:38:31;13.30;;;10.90;;
57313;SDS011;53202;50.976;18.216;2023-12-20T05:39:32;15.40;;;9.50;;
57313;SDS011;53202;50.976;18.216;2023-12-20T05:40:33;14.20;;;9.00;;
57313;SDS011;53202;50.976;18.216;2023-12-20T05:41:33;13.80;;;10.50;;
57313;SDS011;53202;50.976;18.216;2023-12-20T05:42:35;12.90;;;8.60;;
57313;SDS011;53202;50.976;18.216;2023-12-20T05:43:36;12.30;;;8.50;;
57313;SDS011;53202;50.976;18.216;2023-12-20T05:44:37;10.10;;;7.60;;
57313;SDS011;53202;50.976;18.216;2023-12-20T05:45:38;8.60;;;7.50;;
57313;SDS011;53202;50.976;18.216;2023-12-20T05:46:39;12.30;;;7.90;;
57313;SDS011;53202;50.976;18.216;2023-12-20T05:47:40;11.30;;;8.40;;
57313;SDS011;53202;50.976;18.216;2023-12-20T05:48:41;18.50;;;9.30;;
57313;SDS011;53202;50.976;18.216;2023-12-20T05:49:42;11.90;;;7.80;;
57313;SDS011;53202;50.976;18.216;2023-12-20T05:50:44;10.30;;;7.70;;
57313;SDS011;53202;50.976;18.216;2023-12-20T05:51:45;16.00;;;6.90;;
57313;SDS011;53202;50.976;18.216;2023-12-20T05:52:46;16.80;;;7.60;;
57313;SDS011;53202;50.976;18.216;2023-12-20T05:53:47;11.50;;;7.30;;
57313;SDS011;53202;50.976;18.216;2023-12-20T05:54:50;9.20;;;6.70;;